Time;durP1;ratioP1;P1;durP2;ratioP2;P2;SDS_P1;SDS_P2;PMS_P1;PMS_P2;Temp;Humidity;BMP_temperature;BMP_pressure;BME280_temperature;BME280_humidity;BME280_pressure;Samples;Min_cycle;Max_cycle;Signal;HPM_P1;HPM_P2
2023/08/05 00:00:20;;;;;;;3.45;1.40;;;14.40;99.90;;;;;;5022789;28;20396;-58
2023/08/05 00:02:47;;;;;;;5.70;1.65;;;14.30;99.90;;;;;;5031636;28;20041;-56
2023/08/05 00:05:13;;;;;;;2.17;1.27;;;14.30;99.90;;;;;;5022146;28;20490;-58
2023/08/05 00:07:40;;;;;;;6.65;1.80;;;14.30;99.90;;;;;;5031757;28;20041;-57
2023/08/05 00:10:07;;;;;;;4.63;1.67;;;14.30;99.90;;;;;;5030984;28;20045;-56
2023/08/05 00:12:34;;;;;;;2.97;1.88;;;14.30;99.90;;;;;;5029862;28;20049;-58
2023/08/05 00:15:01;;;;;;;6.22;1.70;;;14.30;99.90;;;;;;5023382;28;20549;-58
2023/08/05 00:17:28;;;;;;;;;;;14.30;99.90;;;;;;5031886;28;20053;-59
2023/08/05 00:19:55;;;;;;;5.32;1.70;;;14.20;99.90;;;;;;5031239;28;20027;-58
2023/08/05 00:22:22;;;;;;;4.38;1.50;;;14.20;99.90;;;;;;5031071;28;20506;-59
2023/08/05 00:24:48;;;;;;;3.80;1.75;;;14.20;99.90;;;;;;5023083;28;20394;-59
2023/08/05 00:27:15;;;;;;;5.13;1.58;;;14.10;99.90;;;;;;5023649;28;20056;-58
2023/08/05 00:29:42;;;;;;;5.47;1.63;;;14.10;99.90;;;;;;5013643;28;20045;-59
2023/08/05 00:32:09;;;;;;;8.05;2.00;;;14.60;99.90;;;;;;5031724;28;20048;-59
2023/08/05 00:34:36;;;;;;;3.13;1.77;;;14.20;99.90;;;;;;5024159;28;20041;-59
2023/08/05 00:37:03;;;;;;;3.95;1.80;;;14.20;99.90;;;;;;5014139;28;20060;-59
2023/08/05 00:39:30;;;;;;;5.95;2.20;;;14.20;99.90;;;;;;5018993;28;20411;-54
2023/08/05 00:41:57;;;;;;;2.10;1.75;;;14.20;99.90;;;;;;5012403;28;20045;-58
2023/08/05 00:44:23;;;;;;;4.18;3.10;;;14.30;99.90;;;;;;5029701;28;20041;-54
2023/08/05 00:46:52;;;;;;;6.70;2.30;;;14.40;99.90;;;;;;5030762;28;20029;-56
2023/08/05 00:49:20;;;;;;;5.32;2.42;;;14.30;99.90;;;;;;5004943;28;20052;-57
2023/08/05 00:51:47;;;;;;;4.57;1.92;;;14.30;99.90;;;;;;5007054;28;20056;-58
2023/08/05 00:54:14;;;;;;;5.38;2.60;;;14.30;99.90;;;;;;5001289;28;20136;-58
2023/08/05 00:56:46;;;;;;;4.60;2.05;;;14.30;99.90;;;;;;5012971;28;20048;-54
2023/08/05 00:59:13;;;;;;;2.00;1.60;;;14.30;99.90;;;;;;5031132;28;20549;-58
2023/08/05 01:01:40;;;;;;;2.47;1.63;;;14.30;99.90;;;;;;5011439;28;20042;-56
2023/08/05 01:04:08;;;;;;;2.53;1.50;;;14.20;99.90;;;;;;5013704;28;20053;-55
2023/08/05 01:06:36;;;;;;;4.47;1.55;;;14.20;99.90;;;;;;5027797;28;20085;-54
2023/08/05 01:09:03;;;;;;;4.40;1.90;;;14.10;99.90;;;;;;5031407;28;20034;-55
2023/08/05 01:11:30;;;;;;;4.22;1.65;;;14.10;99.90;;;;;;5011417;28;20168;-55
2023/08/05 01:13:57;;;;;;;5.40;2.22;;;14.10;99.90;;;;;;5003914;28;20595;-57
2023/08/05 01:16:24;;;;;;;7.07;1.60;;;14.10;99.90;;;;;;5027278;28;20060;-58
2023/08/05 01:18:52;;;;;;;5.63;1.92;;;14.10;99.90;;;;;;5013072;28;20508;-58
2023/08/05 01:21:56;;;;;;;4.30;1.90;;;14.10;99.90;;;;;;5011473;28;20071;-54
2023/08/05 01:24:42;;;;;;;4.35;2.45;;;14.10;99.90;;;;;;5010657;28;20049;-56
2023/08/05 01:27:10;;;;;;;4.45;2.50;;;14.10;99.90;;;;;;5012730;28;20049;-55
2023/08/05 01:29:37;;;;;;;8.25;2.78;;;14.10;99.90;;;;;;5012278;28;20521;-55
2023/08/05 01:32:06;;;;;;;9.13;3.03;;;14.20;99.90;;;;;;5012226;28;20052;-57
2023/08/05 01:34:33;;;;;;;9.15;3.15;;;14.20;99.90;;;;;;5011908;28;20067;-59
2023/08/05 01:37:00;;;;;;;8.57;3.08;;;14.20;99.90;;;;;;5029781;28;20501;-58
2023/08/05 01:39:27;;;;;;;3.65;2.28;;;14.20;99.90;;;;;;5026319;28;20046;-55
2023/08/05 01:41:54;;;;;;;5.55;1.92;;;14.10;99.90;;;;;;5011808;28;20458;-55
2023/08/05 01:44:21;;;;;;;5.57;1.55;;;14.10;99.90;;;;;;5032382;28;20044;-59
2023/08/05 01:46:48;;;;;;;4.38;1.92;;;14.10;99.90;;;;;;5009867;28;20041;-56
2023/08/05 01:49:16;;;;;;;5.10;2.30;;;14.10;99.90;;;;;;5012269;28;20053;-56
2023/08/05 01:51:42;;;;;;;4.47;1.70;;;14.00;99.90;;;;;;5014695;28;20056;-58
2023/08/05 01:54:09;;;;;;;11.88;2.28;;;14.00;99.90;;;;;;5007243;28;20046;-54
2023/08/05 01:56:36;;;;;;;4.60;2.10;;;13.90;99.90;;;;;;5024126;28;20133;-56
2023/08/05 01:59:03;;;;;;;3.75;1.67;;;13.90;99.90;;;;;;5016024;28;20080;-56
2023/08/05 02:01:59;;;;;;;6.32;1.98;;;13.90;99.90;;;;;;5015532;28;20049;-58
2023/08/05 02:04:26;;;;;;;3.78;2.10;;;13.80;99.90;;;;;;4996165;28;20050;-59
2023/08/05 02:06:53;;;;;;;7.97;2.30;;;13.70;99.90;;;;;;5015944;28;20145;-58
2023/08/05 02:09:20;;;;;;;4.45;2.00;;;13.80;99.90;;;;;;5031202;28;20103;-57
2023/08/05 02:11:47;;;;;;;3.15;1.88;;;13.70;99.90;;;;;;5015796;28;20132;-56
2023/08/05 02:14:14;;;;;;;2.15;1.52;;;13.70;99.90;;;;;;5009932;28;20642;-57
2023/08/05 02:16:41;;;;;;;4.35;1.92;;;13.70;99.90;;;;;;5031252;28;20045;-57
2023/08/05 02:19:08;;;;;;;4.70;1.75;;;13.60;99.90;;;;;;5015056;28;20057;-57
2023/08/05 02:21:38;;;;;;;4.50;1.63;;;13.80;99.90;;;;;;5032751;28;20049;-58
2023/08/05 02:24:09;;;;;;;5.47;1.90;;;13.60;99.90;;;;;;5015061;28;20049;-58
2023/08/05 02:26:37;;;;;;;3.00;1.50;;;13.60;99.90;;;;;;5014998;28;20421;-58
2023/08/05 02:29:03;;;;;;;;;;;13.50;99.90;;;;;;5014429;28;20049;-58
2023/08/05 02:31:30;;;;;;;4.85;1.38;;;13.60;99.90;;;;;;5015197;28;19921;-58
2023/08/05 02:33:57;;;;;;;4.30;1.58;;;13.50;99.90;;;;;;5014425;28;20056;-55
2023/08/05 02:36:23;;;;;;;3.28;1.50;;;13.40;99.90;;;;;;5015369;28;20650;-59
2023/08/05 02:38:50;;;;;;;2.50;1.75;;;13.50;99.90;;;;;;5014436;28;20056;-58
2023/08/05 02:41:17;;;;;;;3.10;1.70;;;13.50;99.90;;;;;;5015157;28;20077;-57
2023/08/05 02:43:44;;;;;;;5.28;1.65;;;13.50;99.90;;;;;;5004928;28;20048;-56
2023/08/05 02:46:11;;;;;;;2.42;1.40;;;13.50;99.90;;;;;;5014536;28;20053;-58
2023/08/05 02:48:37;;;;;;;1.92;1.35;;;13.50;99.90;;;;;;5011825;28;20560;-55
2023/08/05 02:51:04;;;;;;;3.83;1.60;;;13.40;99.90;;;;;;5004713;28;20060;-58
2023/08/05 02:53:31;;;;;;;3.42;1.77;;;13.40;99.90;;;;;;5027409;28;20057;-57
2023/08/05 02:55:58;;;;;;;5.43;1.80;;;13.50;99.90;;;;;;5014676;28;20083;-58
2023/08/05 02:58:25;;;;;;;1.80;1.52;;;13.40;99.90;;;;;;5006231;28;20530;-59
2023/08/05 03:00:52;;;;;;;3.05;1.73;;;13.40;99.90;;;;;;5032071;28;20041;-57
2023/08/05 03:03:18;;;;;;;8.77;1.70;;;13.40;99.90;;;;;;5031390;28;20051;-56
2023/08/05 03:05:45;;;;;;;2.47;1.77;;;13.40;99.90;;;;;;5031738;28;20046;-55
2023/08/05 03:08:12;;;;;;;3.35;1.67;;;13.40;99.90;;;;;;5031142;28;20041;-58
2023/08/05 03:10:40;;;;;;;2.90;1.90;;;13.50;99.90;;;;;;5014268;28;20049;-58
2023/08/05 03:13:07;;;;;;;5.15;2.10;;;13.50;99.90;;;;;;5014098;28;20049;-55
2023/08/05 03:15:34;;;;;;;3.03;1.52;;;13.50;99.90;;;;;;5014195;28;20140;-56
2023/08/05 03:18:08;;;;;;;4.32;2.53;;;13.50;99.90;;;;;;5007939;28;20058;-57
2023/08/05 03:20:35;;;;;;;4.95;2.25;;;13.50;99.90;;;;;;5010814;28;20053;-58
2023/08/05 03:23:08;;;;;;;4.80;2.13;;;13.50;99.90;;;;;;5005286;28;20470;-55
2023/08/05 03:25:35;;;;;;;4.78;2.55;;;13.50;99.90;;;;;;5008709;28;20076;-56
2023/08/05 03:28:04;;;;;;;5.80;1.90;;;13.60;99.90;;;;;;5013534;28;20449;-55
2023/08/05 03:30:33;;;;;;;4.03;2.08;;;13.50;99.90;;;;;;5031388;28;20508;-59
2023/08/05 03:33:01;;;;;;;3.47;2.40;;;13.50;99.90;;;;;;5012814;28;20037;-55
2023/08/05 03:35:30;;;;;;;3.60;2.33;;;13.60;99.90;;;;;;5005399;28;20044;-57
2023/08/05 03:37:58;;;;;;;6.60;2.72;;;13.50;99.90;;;;;;5014160;28;20053;-57
2023/08/05 03:40:25;;;;;;;5.70;2.50;;;13.50;99.90;;;;;;5013169;28;20119;-55
2023/08/05 03:42:52;;;;;;;3.72;2.25;;;13.50;99.90;;;;;;5012491;28;20037;-57
2023/08/05 03:45:20;;;;;;;2.63;2.17;;;13.50;99.90;;;;;;5025449;28;20045;-56
2023/08/05 03:47:49;;;;;;;5.63;2.38;;;13.50;99.90;;;;;;5013798;28;20059;-55
2023/08/05 03:50:17;;;;;;;3.22;2.03;;;13.50;99.90;;;;;;5031386;28;20068;-59
2023/08/05 03:52:44;;;;;;;2.47;2.05;;;13.50;99.90;;;;;;5013029;28;20509;-55
2023/08/05 03:55:11;;;;;;;4.53;2.10;;;13.50;99.90;;;;;;5007811;28;20246;-56
2023/08/05 03:57:38;;;;;;;5.18;2.17;;;13.60;99.90;;;;;;5010684;28;20088;-55
2023/08/05 04:00:08;;;;;;;3.35;1.77;;;13.50;99.90;;;;;;5012149;28;20073;-59
2023/08/05 04:02:38;;;;;;;2.85;1.60;;;13.40;99.90;;;;;;5031400;28;20050;-58
2023/08/05 04:05:07;;;;;;;3.92;1.52;;;13.50;99.90;;;;;;5010327;28;20512;-58
2023/08/05 04:07:34;;;;;;;2.20;1.42;;;13.50;99.90;;;;;;5013383;28;20041;-57
2023/08/05 04:10:01;;;;;;;5.35;1.75;;;13.50;99.90;;;;;;5030530;28;20482;-56
2023/08/05 04:12:29;;;;;;;4.18;1.55;;;13.50;99.90;;;;;;5031438;28;20060;-58
2023/08/05 04:14:58;;;;;;;4.50;1.45;;;13.50;99.90;;;;;;5022796;28;20045;-56
2023/08/05 04:17:27;;;;;;;4.25;1.35;;;13.50;99.90;;;;;;5009512;28;20502;-58
2023/08/05 04:19:54;;;;;;;3.28;1.83;;;13.60;99.90;;;;;;5023105;28;20409;-58
2023/08/05 04:22:22;;;;;;;3.05;1.92;;;13.60;99.90;;;;;;5012923;28;20056;-56
2023/08/05 04:24:49;;;;;;;3.20;1.48;;;13.50;99.90;;;;;;5022341;28;20072;-58
2023/08/05 04:27:16;;;;;;;2.47;1.65;;;13.50;99.90;;;;;;5030833;28;20041;-56
2023/08/05 04:29:43;;;;;;;4.05;1.85;;;13.60;99.90;;;;;;5021036;28;20084;-58
2023/08/05 04:32:09;;;;;;;2.63;1.90;;;13.60;99.90;;;;;;5024483;28;20124;-55
2023/08/05 04:34:37;;;;;;;2.80;1.55;;;13.50;99.90;;;;;;5021921;28;20094;-59
2023/08/05 04:37:21;;;;;;;4.30;2.30;;;13.60;99.90;;;;;;5030846;28;20133;-59
2023/08/05 04:39:49;;;;;;;7.28;2.08;;;13.60;99.90;;;;;;5028938;28;20060;-56
2023/08/05 04:42:17;;;;;;;8.05;2.15;;;13.60;99.90;;;;;;5030436;28;20041;-54
2023/08/05 04:44:45;;;;;;;4.68;2.88;;;13.60;99.90;;;;;;5021540;28;20495;-57
2023/08/05 04:47:12;;;;;;;3.72;2.28;;;13.60;99.90;;;;;;5030586;28;20124;-57
2023/08/05 04:49:42;;;;;;;8.45;2.10;;;13.60;99.90;;;;;;5030567;28;20440;-56
2023/08/05 04:52:10;;;;;;;4.68;2.45;;;13.60;99.90;;;;;;5029751;28;20049;-57
2023/08/05 04:54:41;;;;;;;4.60;2.58;;;13.60;99.90;;;;;;5030877;28;20038;-55
2023/08/05 04:57:08;;;;;;;6.82;3.00;;;13.60;99.90;;;;;;5029381;28;20103;-57
2023/08/05 04:59:35;;;;;;;4.25;2.50;;;13.60;99.90;;;;;;5022860;28;20049;-55
2023/08/05 05:02:02;;;;;;;4.70;2.33;;;13.60;99.90;;;;;;5024344;28;20042;-57
2023/08/05 05:04:29;;;;;;;3.72;2.08;;;13.60;99.90;;;;;;5030649;28;20387;-57
2023/08/05 05:06:56;;;;;;;5.55;2.22;;;13.60;99.90;;;;;;5027323;28;20060;-58
2023/08/05 05:09:23;;;;;;;5.60;2.67;;;13.60;99.90;;;;;;5024780;28;20052;-58
2023/08/05 05:11:50;;;;;;;6.75;3.17;;;13.60;99.90;;;;;;5029752;28;20132;-58
2023/08/05 05:14:17;;;;;;;41.97;4.63;;;13.60;99.90;;;;;;5029956;28;20041;-56
2023/08/05 05:16:43;;;;;;;19.73;3.92;;;13.60;99.90;;;;;;5023164;28;20049;-56
2023/08/05 05:19:10;;;;;;;13.98;3.88;;;13.60;99.90;;;;;;5034950;28;20041;-55
2023/08/05 05:21:37;;;;;;;7.65;3.35;;;13.60;99.90;;;;;;5033579;28;20049;-58
2023/08/05 05:24:04;;;;;;;4.82;3.22;;;13.60;99.90;;;;;;5027455;28;20037;-55
2023/08/05 05:26:31;;;;;;;6.10;2.80;;;13.60;99.90;;;;;;5034026;28;20049;-54
2023/08/05 05:28:57;;;;;;;4.82;2.92;;;13.60;99.90;;;;;;5030395;28;20049;-57
2023/08/05 05:31:24;;;;;;;4.32;2.72;;;13.60;99.90;;;;;;5033272;28;20041;-54
2023/08/05 05:33:51;;;;;;;5.95;2.63;;;13.60;99.90;;;;;;5034144;28;20030;-54
2023/08/05 05:36:18;;;;;;;3.60;2.60;;;13.60;99.90;;;;;;5033907;28;20048;-55
2023/08/05 05:38:44;;;;;;;3.35;2.40;;;13.70;99.90;;;;;;5030973;28;20056;-54
2023/08/05 05:41:11;;;;;;;3.95;2.70;;;13.60;99.90;;;;;;5024595;28;20041;-57
2023/08/05 05:43:38;;;;;;;4.82;2.42;;;13.60;99.90;;;;;;5028614;28;20051;-59
2023/08/05 05:46:05;;;;;;;4.07;3.17;;;13.70;99.90;;;;;;5028723;28;20099;-56
2023/08/05 05:48:32;;;;;;;4.40;2.45;;;13.70;99.90;;;;;;5029834;28;20033;-56
2023/08/05 05:50:59;;;;;;;3.05;2.10;;;14.50;99.90;;;;;;5032186;28;20037;-61
2023/08/05 05:53:26;;;;;;;3.75;2.20;;;13.70;99.90;;;;;;5032506;28;20172;-58
2023/08/05 05:55:53;;;;;;;2.70;2.30;;;13.80;99.90;;;;;;5031520;28;20056;-57
2023/08/05 05:58:20;;;;;;;3.95;2.42;;;13.80;99.90;;;;;;5033022;28;20054;-58
2023/08/05 06:00:47;;;;;;;9.10;2.65;;;13.80;99.90;;;;;;5033080;28;20398;-57
2023/08/05 06:03:14;;;;;;;3.88;2.60;;;13.80;99.90;;;;;;5033309;28;20038;-53
2023/08/05 06:05:40;;;;;;;6.32;2.83;;;13.80;99.90;;;;;;5033225;28;20048;-55
2023/08/05 06:08:07;;;;;;;4.13;2.28;;;13.80;99.90;;;;;;5032412;28;20034;-56
2023/08/05 06:10:38;;;;;;;3.97;2.38;;;13.80;99.90;;;;;;5033566;28;20056;-55
2023/08/05 06:13:05;;;;;;;5.20;2.40;;;13.80;99.90;;;;;;5031800;28;20046;-56
2023/08/05 06:15:31;;;;;;;7.85;3.17;;;13.80;99.90;;;;;;5030605;28;20787;-54
2023/08/05 06:17:58;;;;;;;1.70;1.60;;;13.90;99.90;;;;;;5031023;28;20049;-58
2023/08/05 06:20:25;;;;;;;3.67;2.13;;;13.80;99.90;;;;;;5023951;28;20053;-54
2023/08/05 06:22:52;;;;;;;7.05;3.20;;;13.80;99.90;;;;;;5031915;28;20650;-59
2023/08/05 06:25:19;;;;;;;5.22;3.05;;;13.90;99.90;;;;;;5015459;28;20053;-58
2023/08/05 06:27:46;;;;;;;3.50;2.63;;;13.90;99.90;;;;;;5027855;28;20037;-56
2023/08/05 06:30:12;;;;;;;4.65;2.40;;;14.00;99.90;;;;;;5032722;28;20559;-58
2023/08/05 06:32:39;;;;;;;3.10;2.40;;;13.90;99.90;;;;;;5031497;28;20046;-55
2023/08/05 06:35:06;;;;;;;2.80;2.03;;;13.90;99.90;;;;;;5032777;28;20089;-57
2023/08/05 06:37:33;;;;;;;3.05;2.38;;;13.80;99.90;;;;;;5032693;28;20042;-57
2023/08/05 06:40:00;;;;;;;3.33;2.40;;;13.80;99.90;;;;;;5029079;28;20410;-59
2023/08/05 06:42:26;;;;;;;4.50;2.65;;;13.80;99.90;;;;;;5031335;28;20414;-57
2023/08/05 06:44:54;;;;;;;2.53;2.10;;;13.80;99.90;;;;;;5032753;28;20052;-58
2023/08/05 06:47:20;;;;;;;;;;;13.90;99.90;;;;;;5032843;28;20037;-59
2023/08/05 06:49:47;;;;;;;2.25;1.58;;;13.80;99.90;;;;;;5032717;28;19921;-54
2023/08/05 06:52:14;;;;;;;4.88;1.88;;;13.80;99.90;;;;;;5020934;28;20048;-59
2023/08/05 06:54:41;;;;;;;2.63;1.88;;;13.80;99.90;;;;;;5028377;28;20045;-55
2023/08/05 06:57:07;;;;;;;1.88;1.20;;;13.80;99.90;;;;;;5031975;28;20068;-57
2023/08/05 06:59:34;;;;;;;4.22;1.45;;;13.80;99.90;;;;;;5032406;28;20049;-56
2023/08/05 07:02:01;;;;;;;2.90;1.40;;;13.80;99.90;;;;;;5030779;28;20040;-57
2023/08/05 07:04:28;;;;;;;1.90;1.42;;;13.80;99.90;;;;;;5031722;28;20401;-58
2023/08/05 07:06:55;;;;;;;1.50;1.08;;;13.80;99.90;;;;;;5029617;28;20053;-58
2023/08/05 07:09:21;;;;;;;3.47;1.40;;;13.80;99.90;;;;;;5025360;28;20045;-59
2023/08/05 07:11:48;;;;;;;2.15;1.58;;;13.90;99.90;;;;;;5030847;28;20042;-59
2023/08/05 07:14:15;;;;;;;;;;;14.00;99.90;;;;;;5031836;28;20030;-56
2023/08/05 07:16:42;;;;;;;3.33;1.58;;;14.00;99.90;;;;;;5020430;28;19921;-58
2023/08/05 07:19:09;;;;;;;3.17;1.48;;;14.00;99.90;;;;;;5031413;28;20041;-57
2023/08/05 07:21:37;;;;;;;2.30;1.45;;;14.00;99.90;;;;;;5031295;28;20041;-59
2023/08/05 07:24:04;;;;;;;5.50;1.98;;;14.00;99.90;;;;;;5028251;28;20080;-58
2023/08/05 07:26:31;;;;;;;5.00;2.05;;;14.00;99.90;;;;;;5030441;28;20060;-57
2023/08/05 07:28:58;;;;;;;3.65;2.15;;;14.00;99.90;;;;;;5031313;28;20038;-56
2023/08/05 07:31:24;;;;;;;11.00;3.13;;;14.00;99.90;;;;;;5029745;28;20037;-56
2023/08/05 07:33:51;;;;;;;2.55;1.67;;;14.00;99.90;;;;;;5031590;28;20038;-55
2023/08/05 07:36:22;;;;;;;1.90;1.58;;;14.00;99.90;;;;;;5029835;28;20045;-58
2023/08/05 07:38:50;;;;;;;3.03;1.50;;;14.00;99.90;;;;;;5031912;28;20044;-58
2023/08/05 07:41:16;;;;;;;2.83;1.30;;;14.00;99.90;;;;;;5030340;28;20037;-58
2023/08/05 07:43:43;;;;;;;2.17;1.02;;;14.10;99.90;;;;;;5031606;28;20040;-59
2023/08/05 07:46:13;;;;;;;1.38;1.00;;;14.10;99.90;;;;;;5030531;28;20068;-56
2023/08/05 07:48:40;;;;;;;1.52;1.10;;;14.10;99.90;;;;;;5031367;28;20042;-54
2023/08/05 07:51:07;;;;;;;0.93;0.70;;;14.20;99.90;;;;;;5024710;28;20044;-55
2023/08/05 07:53:35;;;;;;;1.42;0.90;;;14.10;99.90;;;;;;5026636;28;20044;-59
2023/08/05 07:56:09;;;;;;;1.30;0.77;;;14.10;99.90;;;;;;5028390;28;20043;-54
2023/08/05 07:58:40;;;;;;;2.13;0.73;;;14.20;99.90;;;;;;5027923;28;20050;-58
2023/08/05 08:01:07;;;;;;;2.42;1.00;;;14.20;99.90;;;;;;5024074;28;20057;-57
2023/08/05 08:03:34;;;;;;;2.55;0.98;;;14.10;99.90;;;;;;5031240;28;20071;-59
2023/08/05 08:06:02;;;;;;;4.35;1.00;;;14.20;99.90;;;;;;5019830;28;20479;-55
2023/08/05 08:08:29;;;;;;;3.17;0.93;;;14.20;99.90;;;;;;5025216;28;20056;-57
2023/08/05 08:10:55;;;;;;;1.10;0.60;;;14.20;99.90;;;;;;5025367;28;20054;-58
2023/08/05 08:13:22;;;;;;;1.27;0.95;;;14.30;99.90;;;;;;5030590;28;20478;-58
2023/08/05 08:15:49;;;;;;;2.03;1.00;;;14.30;99.90;;;;;;5022470;28;20487;-57
2023/08/05 08:18:16;;;;;;;3.33;1.85;;;14.40;99.90;;;;;;5028466;28;20061;-57
2023/08/05 08:20:51;;;;;;;4.50;1.20;;;14.40;99.90;;;;;;5017571;28;20490;-55
2023/08/05 08:23:18;;;;;;;0.95;0.80;;;14.40;99.90;;;;;;5022390;28;20042;-56
2023/08/05 08:25:45;;;;;;;1.30;0.60;;;14.50;99.90;;;;;;5031278;28;20057;-54
2023/08/05 08:28:12;;;;;;;1.50;0.73;;;14.60;99.90;;;;;;5027120;28;20088;-58
2023/08/05 08:30:39;;;;;;;0.82;0.60;;;14.60;99.90;;;;;;5025433;28;20049;-55
2023/08/05 08:33:05;;;;;;;0.60;0.50;;;14.70;99.90;;;;;;5029487;28;20053;-56
2023/08/05 08:35:33;;;;;;;0.90;0.43;;;14.80;99.90;;;;;;5029731;28;20061;-58
2023/08/05 08:37:59;;;;;;;1.35;1.00;;;14.90;99.90;;;;;;5024580;28;20422;-55
2023/08/05 08:40:26;;;;;;;7.25;3.92;;;15.00;99.90;;;;;;5031250;28;20545;-55
2023/08/05 08:42:54;;;;;;;9.52;5.40;;;15.00;99.90;;;;;;5030076;28;20041;-56
2023/08/05 08:45:24;;;;;;;2.95;1.95;;;15.00;99.90;;;;;;5024734;28;20430;-59
2023/08/05 08:47:52;;;;;;;2.40;1.40;;;15.00;99.90;;;;;;5023360;28;20052;-59
2023/08/05 08:50:20;;;;;;;2.80;1.30;;;15.10;99.90;;;;;;5029439;28;20029;-58
2023/08/05 08:52:48;;;;;;;3.53;1.08;;;15.10;99.90;;;;;;5034415;28;20033;-57
2023/08/05 08:55:15;;;;;;;1.52;1.08;;;15.10;99.90;;;;;;5034436;28;20037;-58
2023/08/05 08:57:42;;;;;;;2.92;1.35;;;15.00;99.90;;;;;;5030966;28;20060;-59
2023/08/05 09:00:09;;;;;;;1.35;1.10;;;15.00;99.90;;;;;;5037139;28;20052;-57
2023/08/05 09:02:37;;;;;;;2.88;1.10;;;14.90;99.90;;;;;;5030094;28;20390;-60
2023/08/05 09:05:04;;;;;;;3.80;1.63;;;14.90;99.90;;;;;;5036106;28;20075;-58
2023/08/05 09:07:31;;;;;;;2.10;1.40;;;14.90;99.90;;;;;;5036564;28;20041;-56
2023/08/05 09:10:05;;;;;;;1.63;0.98;;;14.80;99.90;;;;;;5036771;28;20063;-57
2023/08/05 09:12:33;;;;;;;2.95;1.33;;;14.80;99.90;;;;;;5033230;28;20124;-57
2023/08/05 09:15:01;;;;;;;2.22;1.38;;;14.60;99.90;;;;;;5036899;28;20046;-56
2023/08/05 09:17:37;;;;;;;2.58;1.10;;;14.80;99.90;;;;;;5028811;28;20037;-58
2023/08/05 09:20:16;;;;;;;3.42;1.80;;;14.80;99.90;;;;;;5036918;28;20486;-55
2023/08/05 09:22:54;;;;;;;1.42;1.33;;;14.70;99.90;;;;;;5028165;28;20458;-58
2023/08/05 09:25:22;;;;;;;0.65;0.65;;;14.70;99.90;;;;;;5035981;28;20060;-60
2023/08/05 09:27:53;;;;;;;2.67;0.90;;;14.70;99.90;;;;;;5037021;28;20135;-55
2023/08/05 09:30:21;;;;;;;2.05;1.30;;;14.70;99.90;;;;;;5035440;28;20124;-54
2023/08/05 09:32:48;;;;;;;2.08;1.23;;;14.70;99.90;;;;;;5036659;28;20129;-58
2023/08/05 09:35:16;;;;;;;1.33;1.13;;;14.70;99.90;;;;;;5029373;28;20081;-57
2023/08/05 09:37:51;;;;;;;2.25;1.40;;;14.80;99.90;;;;;;5036060;28;20079;-57
2023/08/05 09:40:31;;;;;;;1.88;1.38;;;14.80;99.90;;;;;;5031374;28;20053;-58
2023/08/05 09:42:59;;;;;;;6.07;1.50;;;14.90;99.90;;;;;;5035978;28;20140;-58
2023/08/05 09:45:32;;;;;;;2.05;1.50;;;14.90;99.90;;;;;;5035961;28;20087;-56
2023/08/05 09:48:07;;;;;;;3.97;1.60;;;15.00;99.90;;;;;;5033387;28;20041;-58
2023/08/05 09:50:39;;;;;;;2.35;1.50;;;15.00;99.90;;;;;;5036525;28;20045;-58
2023/08/05 09:53:13;;;;;;;1.95;1.40;;;15.00;99.90;;;;;;5030546;28;20111;-57
2023/08/05 09:55:40;;;;;;;2.67;1.20;;;15.00;99.90;;;;;;5032908;28;20037;-58
2023/08/05 09:58:07;;;;;;;1.42;1.08;;;15.10;99.90;;;;;;5027586;28;20085;-58
2023/08/05 10:00:36;;;;;;;2.03;0.90;;;15.00;99.90;;;;;;5035818;28;20091;-60
2023/08/05 10:03:06;;;;;;;2.35;1.42;;;15.00;99.90;;;;;;5035269;28;20463;-60
2023/08/05 10:05:35;;;;;;;4.18;1.65;;;15.10;99.90;;;;;;5028144;28;20038;-60
2023/08/05 10:08:05;;;;;;;;;;;15.00;99.90;;;;;;5024062;28;20096;-59
2023/08/05 10:10:34;;;;;;;2.17;1.70;;;15.00;99.90;;;;;;5033300;28;19925;-60
2023/08/05 10:13:08;;;;;;;2.95;1.92;;;15.00;99.90;;;;;;5032283;28;20103;-60
2023/08/05 10:15:41;;;;;;;2.63;2.17;;;15.10;99.90;;;;;;5031991;28;20509;-59
2023/08/05 10:18:09;;;;;;;2.80;1.33;;;15.10;99.90;;;;;;5033105;28;20520;-59
2023/08/05 10:20:38;;;;;;;1.80;1.17;;;15.10;99.90;;;;;;5029503;28;20455;-59
2023/08/05 10:23:09;;;;;;;2.22;1.58;;;15.10;99.90;;;;;;5026701;28;20045;-60
2023/08/05 10:25:46;;;;;;;1.95;1.40;;;15.30;99.90;;;;;;5033346;28;20041;-60
2023/08/05 10:28:25;;;;;;;5.43;1.83;;;15.30;99.90;;;;;;5031423;28;20128;-58
2023/08/05 10:30:54;;;;;;;1.90;1.23;;;15.40;99.90;;;;;;5009649;28;20465;-60
2023/08/05 10:33:21;;;;;;;1.60;0.90;;;15.50;99.90;;;;;;5028348;28;20120;-60
2023/08/05 10:35:49;;;;;;;1.40;1.30;;;15.60;99.90;;;;;;5026617;28;20499;-59
2023/08/05 10:38:24;;;;;;;2.03;1.23;;;15.50;99.90;;;;;;5029031;28;20037;-60
2023/08/05 10:41:03;;;;;;;1.30;1.05;;;15.50;99.90;;;;;;5009298;28;20095;-59
2023/08/05 10:43:32;;;;;;;0.85;0.60;;;15.40;99.90;;;;;;5031493;28;20458;-61
2023/08/05 10:46:05;;;;;;;0.73;0.68;;;15.50;99.90;;;;;;5029660;28;20120;-57
2023/08/05 10:48:42;;;;;;;1.38;0.85;;;15.60;99.90;;;;;;5031815;28;20044;-59
2023/08/05 10:51:12;;;;;;;0.80;0.80;;;15.80;99.90;;;;;;5031199;28;20049;-60
2023/08/05 10:53:42;;;;;;;1.98;0.90;;;15.90;99.90;;;;;;5024059;28;20056;-61
2023/08/05 10:56:13;;;;;;;1.10;1.00;;;16.00;99.90;;;;;;5032314;28;20033;-60
2023/08/05 10:58:47;;;;;;;0.93;0.80;;;15.90;99.90;;;;;;5029463;28;20059;-59
2023/08/05 11:01:15;;;;;;;1.63;1.00;;;15.80;99.90;;;;;;5032298;28;20390;-61
2023/08/05 11:03:45;;;;;;;1.60;1.40;;;15.70;99.90;;;;;;5012922;28;20171;-61
2023/08/05 11:06:13;;;;;;;2.20;1.08;;;15.70;99.90;;;;;;5013654;28;20518;-61
2023/08/05 11:08:42;;;;;;;1.90;1.10;;;15.70;99.90;;;;;;5031947;28;20509;-61
2023/08/05 11:11:11;;;;;;;2.97;1.20;;;15.90;99.90;;;;;;5002506;28;20038;-61
2023/08/05 11:13:39;;;;;;;1.90;1.10;;;16.00;99.90;;;;;;5023910;28;20045;-60
2023/08/05 11:16:06;;;;;;;1.55;1.40;;;16.20;99.90;;;;;;5031540;28;20041;-60
2023/08/05 11:18:34;;;;;;;1.92;1.48;;;16.80;99.90;;;;;;5023855;28;20397;-61
2023/08/05 11:21:03;;;;;;;2.22;1.40;;;16.50;99.90;;;;;;5031498;28;20053;-61
2023/08/05 11:23:30;;;;;;;3.17;2.03;;;16.50;99.90;;;;;;5026087;28;20479;-60
2023/08/05 11:26:01;;;;;;;2.92;1.77;;;16.60;99.90;;;;;;5032081;28;20037;-59
2023/08/05 11:28:29;;;;;;;2.58;1.83;;;17.10;99.90;;;;;;5031271;28;20042;-60
2023/08/05 11:31:04;;;;;;;4.32;1.73;;;16.80;99.90;;;;;;5026781;28;20046;-61
2023/08/05 11:33:31;;;;;;;1.73;1.02;;;16.70;99.90;;;;;;5030414;28;20033;-60
2023/08/05 11:35:58;;;;;;;1.42;1.20;;;16.60;99.90;;;;;;5030641;28;20075;-57
2023/08/05 11:38:25;;;;;;;2.00;1.30;;;16.60;99.90;;;;;;5015632;28;20054;-60
2023/08/05 11:40:53;;;;;;;1.60;1.15;;;16.60;99.90;;;;;;5030880;28;20033;-59
2023/08/05 11:43:22;;;;;;;2.30;0.63;;;16.60;99.90;;;;;;5031373;28;20045;-58
2023/08/05 11:45:50;;;;;;;1.90;1.40;;;16.60;99.90;;;;;;5027900;28;20044;-61
2023/08/05 11:48:27;;;;;;;2.08;1.00;;;16.50;99.90;;;;;;5028138;28;20487;-59
2023/08/05 11:50:59;;;;;;;1.20;0.77;;;16.40;99.90;;;;;;5027156;28;20049;-60
2023/08/05 11:53:26;;;;;;;3.33;1.10;;;16.30;99.90;;;;;;5027320;28;20486;-61
2023/08/05 11:55:54;;;;;;;3.53;1.27;;;16.20;99.90;;;;;;5027354;28;20053;-61
2023/08/05 11:58:23;;;;;;;;;;;16.10;99.90;;;;;;5027059;28;20072;-61
2023/08/05 12:00:52;;;;;;;2.13;1.20;;;16.10;99.90;;;;;;5027171;28;20397;-61
2023/08/05 12:03:19;;;;;;;3.08;1.33;;;16.20;99.90;;;;;;5025744;28;20128;-60
2023/08/05 12:05:46;;;;;;;;;;;16.30;99.90;;;;;;5008420;28;22153;-58
2023/08/05 12:08:38;;;;;;;1.30;1.15;;;16.20;99.90;;;;;;5026914;28;20024;-60
2023/08/05 12:11:05;;;;;;;1.95;1.50;;;16.20;99.90;;;;;;5027132;28;20386;-59
2023/08/05 12:13:34;;;;;;;2.45;1.75;;;16.10;99.90;;;;;;5026433;28;20051;-61
2023/08/05 12:16:12;;;;;;;1.80;1.60;;;16.10;99.90;;;;;;5027975;28;20081;-59
2023/08/05 12:18:45;;;;;;;2.42;1.60;;;16.00;99.90;;;;;;5027233;28;20497;-61
2023/08/05 12:21:13;;;;;;;2.40;1.80;;;16.00;99.90;;;;;;5026645;28;20044;-59
2023/08/05 12:23:41;;;;;;;2.13;1.90;;;15.90;99.90;;;;;;5026187;28;20494;-62
2023/08/05 12:26:10;;;;;;;4.20;1.85;;;16.00;99.90;;;;;;5027640;28;20446;-61
2023/08/05 12:28:37;;;;;;;2.90;2.08;;;16.00;99.90;;;;;;5026355;28;20049;-59
2023/08/05 12:31:04;;;;;;;;;;;16.00;99.90;;;;;;5028393;28;20041;-61
2023/08/05 12:33:31;;;;;;;3.15;2.35;;;16.00;99.90;;;;;;5025481;28;19927;-62
2023/08/05 12:35:58;;;;;;;3.33;2.50;;;16.10;99.90;;;;;;5009995;28;20069;-61
2023/08/05 12:38:24;;;;;;;3.20;2.70;;;16.10;99.90;;;;;;5008876;28;20658;-61
2023/08/05 12:40:51;;;;;;;2.50;2.30;;;16.20;99.90;;;;;;5027632;28;20037;-61
2023/08/05 12:43:18;;;;;;;5.00;4.50;;;16.10;99.90;;;;;;5024522;28;20072;-60
2023/08/05 12:45:45;;;;;;;2.95;2.65;;;16.10;99.90;;;;;;5026818;28;20122;-61
2023/08/05 12:48:12;;;;;;;3.03;2.35;;;16.10;99.90;;;;;;5026754;28;20061;-61
2023/08/05 12:50:38;;;;;;;3.47;2.55;;;16.10;99.90;;;;;;5027726;28;20077;-60
2023/08/05 12:53:05;;;;;;;3.38;3.08;;;16.10;99.90;;;;;;5025461;28;20052;-60